Terminal Aerodrome Forecast
Issued by NWS Wichita, KS

Home | Current Version | Previous Version | Text Only | Print | Product List | Glossary On
Versions: 1 2 3 4 5 6 7 8 9 10 11 12 13 14 15 16 17 18 19
736
FTUS43 KICT 140856 AAA
TAFICT
TAF AMD
KICT 140856Z 1409/1506 35013KT P6SM SCT070 BKN150
     FM141000 VRB04KT P6SM SCT020 BKN035
     FM141400 31005KT P6SM SCT030 BKN250
     FM141800 33011KT P6SM SCT250
     FM150000 30005KT P6SM SCT250=

USA.gov is the U.S. government's official web portal to all federal, state and local government web resources and services.